Nearby METAR Reports

 

TNCA - Queen Beatrix, Lesser Antilles
Distance from station: 0 0km
Updated: 18/08/2017 17:00
Few Clouds
Few Clouds
 Wind from ENE
Wind: ENE 30 km/h
Temperature: 32°C
Heat Index: 40°C
Dew Point: 25°C
Humidity: 67%
Barometer: 1007 hPa
Clouds: Few Clouds
Visibility: 10 km
Cloud details: Few Clouds 610 m
2017/08/18 21:00 TNCA 182100Z 07016KT 040V100 9999 FEW020 32/25 Q1007 NOSIG
SVJC - Paraguana/Josefa, Venezuela
Distance from station: S 83km
Updated: 17/10/2016 15:00
NOT Current
Partly Cloudy
Partly Cloudy
 Wind from E
Wind: E 19 km/h
Temperature: 30°C
Heat Index: 33°C
Dew Point: 22°C
Humidity: 62%
Barometer: 1006 hPa
Clouds: Partly Cloudy
Visibility: 7 km
Cloud details: Partly Cloudy 1219 m
2016/10/17 19:00 SVJC 171900Z 09010KT 7000 SCT040 30/22 Q1006
 
TNCC - Hato Air Curacao, Lesser Antilles
Distance from station: ESE 117km
Updated: 18/08/2017 18:00
Few Clouds
Few Clouds
 Wind from E
Wind: E 22 km/h
Temperature: 30°C
Heat Index: 36°C
Dew Point: 25°C
Humidity: 75%
Barometer: 1009 hPa
Clouds: Few Clouds
Visibility: 10 km
Cloud details: Few Clouds 579 m
2017/08/18 22:00 TNCC 182200Z 08012KT 9999 FEW019 30/25 Q1009 NOSIG
SVCR - Coro/Jose Leonar, Venezuela
Distance from station: SSE 126km
Updated: 28/06/2017 14:00
NOT Current

 Wind from E
Wind: E 19 km/h
Visibility: 10 km
2017/06/28 18:00 SVCR 281800Z 09010KT 9999 BKN01 CHECK TEXT NEW ENDING ADDED KATLYTAA
 
TNCB - Bonaire/Flamingo, Lesser Antilles
Distance from station: ESE 191km
Updated: 18/08/2017 16:55
Mostly Cloudy
Mostly Cloudy
 Wind from E
Wind: E 26 km/h
Temperature: 30°C
Heat Index: 36°C
Dew Point: 25°C
Humidity: 75%
Barometer: 1008 hPa
Clouds: Mostly Cloudy
Visibility: 10 km
Cloud details: Mostly Cloudy 488 m
2017/08/18 20:55 TNCB 182055Z 08014KT 040V100 9999 BKN016 30/25 Q1008
SVMC - Maracaibo/La Chi, Venezuela
Distance from station: SW 285km
Updated: 18/08/2017 17:00
Few Clouds
Few Clouds
 Wind from N
Wind: N 7 km/h
Clouds: Few Clouds
Visibility: 10 km
Cloud details: Few Clouds 305 m
2017/08/18 21:00 SVMC 182100Z 36004KT 9999 FEW010 CBE SCT016 34/25 Q1007